Terminal Aerodrome Forecast
Issued by NWS Huntsville, AL

Home | Current Version | Previous Version | Text Only | Print | Product List | Glossary On
Versions: 1 2 3 4 5 6 7 8 9 10 11 12 13 14 15 16 17 18 19 20 21 22 23 24 25 26 27 28
000
FTUS44 KHUN 101720
TAFMSL
TAF
KMSL 101720Z 1018/1118 35010G20KT 3SM RA OVC010
      TEMPO 1018/1020 +RA OVC008
     FM102000 01010G15KT 4SM -RASN OVC015
     FM102200 01010G15KT 4SM -SN OVC015
     FM110400 01006KT 6SM BR BKN040
     FM110900 01006KT P6SM SCT250=

USA.gov is the U.S. government's official web portal to all federal, state and local government web resources and services.